createdAt,value
2019-05-03T00:02:29.186Z,9.07
2019-05-03T00:05:03.489Z,8.96
2019-05-03T00:07:32.204Z,8.93
2019-05-03T00:10:02.743Z,8.93
2019-05-03T00:12:32.760Z,8.94
2019-05-03T00:15:14.872Z,8.98
2019-05-03T00:17:43.499Z,8.96
2019-05-03T00:20:12.134Z,8.93
2019-05-03T00:22:41.889Z,8.98
2019-05-03T00:25:12.746Z,9.04
2019-05-03T00:27:42.766Z,9.15
2019-05-03T00:30:12.048Z,9.11
2019-05-03T00:32:42.583Z,8.99
2019-05-03T00:35:18.860Z,9.05
2019-05-03T00:37:55.225Z,9.09
2019-05-03T00:40:25.523Z,8.93
2019-05-03T00:42:54.032Z,8.82
2019-05-03T00:45:22.592Z,8.73
2019-05-03T00:47:52.714Z,8.74
2019-05-03T00:50:22.593Z,8.77
2019-05-03T00:52:51.600Z,8.80
2019-05-03T00:55:21.971Z,8.89
2019-05-03T00:57:52.208Z,8.94
2019-05-03T01:00:21.753Z,9.02
2019-05-03T01:02:51.758Z,9.03
2019-05-03T01:05:22.543Z,9.05
2019-05-03T01:07:52.562Z,9.09
2019-05-03T01:10:22.644Z,9.07
2019-05-03T01:12:52.376Z,8.98
2019-05-03T01:15:22.791Z,8.95
2019-05-03T01:17:52.528Z,8.89
2019-05-03T01:20:22.537Z,8.83
2019-05-03T01:22:51.906Z,8.77
2019-05-03T01:25:31.578Z,8.65
2019-05-03T01:27:52.201Z,8.63
2019-05-03T01:30:22.620Z,8.56
2019-05-03T01:32:52.397Z,8.53
2019-05-03T01:35:21.937Z,8.47
2019-05-03T01:37:51.733Z,8.44
2019-05-03T01:40:22.029Z,8.45
2019-05-03T01:42:51.792Z,8.29
2019-05-03T01:45:22.642Z,8.30
2019-05-03T01:48:09.005Z,8.29
2019-05-03T01:50:55.488Z,8.38
2019-05-03T01:53:28.355Z,8.31
2019-05-03T01:55:56.852Z,8.18
2019-05-03T01:58:25.676Z,8.09
2019-05-03T02:00:56.645Z,8.05
2019-05-03T02:03:32.636Z,7.99
2019-05-03T02:06:02.397Z,7.95
2019-05-03T02:08:32.619Z,7.92
2019-05-03T02:11:02.196Z,7.90
2019-05-03T02:13:32.097Z,7.86
2019-05-03T02:16:02.272Z,7.89
2019-05-03T02:18:31.844Z,7.90
2019-05-03T02:21:01.675Z,7.88
2019-05-03T02:23:31.939Z,7.83
2019-05-03T02:26:00.664Z,7.77
2019-05-03T02:28:29.297Z,7.75
2019-05-03T02:30:57.936Z,7.76
2019-05-03T02:33:26.532Z,7.76
2019-05-03T02:35:55.195Z,7.84
2019-05-03T02:38:24.700Z,7.92
2019-05-03T02:40:53.541Z,7.95
2019-05-03T02:43:36.113Z,7.91
2019-05-03T02:46:21.444Z,7.73
2019-05-03T02:49:00.746Z,7.62
2019-05-03T02:51:29.426Z,7.55
2019-05-03T02:53:57.996Z,7.47
2019-05-03T02:56:26.644Z,7.48
2019-05-03T02:58:55.936Z,7.47
2019-05-03T03:01:26.398Z,7.49
2019-05-03T03:03:56.226Z,7.48
2019-05-03T03:06:27.424Z,7.45
2019-05-03T03:08:58.530Z,7.47
2019-05-03T03:11:29.743Z,7.40
2019-05-03T03:14:00.004Z,7.32
2019-05-03T03:16:30.468Z,7.27
2019-05-03T03:19:02.011Z,7.25
2019-05-03T03:21:36.049Z,7.22
2019-05-03T03:24:14.022Z,7.22
2019-05-03T03:26:47.058Z,7.28
2019-05-03T03:29:16.319Z,7.40
2019-05-03T03:32:19.068Z,7.39
2019-05-03T03:35:03.226Z,7.53
2019-05-03T03:37:30.492Z,7.77
2019-05-03T03:39:59.537Z,8.19
2019-05-03T03:42:31.254Z,8.71
2019-05-03T03:45:01.799Z,9.31
2019-05-03T03:47:35.580Z,9.94
2019-05-03T03:50:06.061Z,10.69
2019-05-03T03:52:36.029Z,11.43
2019-05-03T03:55:06.661Z,12.21
2019-05-03T03:57:36.405Z,12.96
2019-05-03T04:00:07.610Z,13.01
2019-05-03T04:02:36.596Z,13.59
2019-05-03T04:05:06.562Z,14.40
2019-05-03T04:07:36.447Z,14.75
2019-05-03T04:10:07.271Z,15.48
2019-05-03T04:12:35.947Z,16.40
2019-05-03T04:15:07.364Z,16.95
2019-05-03T04:17:56.793Z,17.19
2019-05-03T04:20:27.664Z,17.40
2019-05-03T04:22:56.359Z,17.76
2019-05-03T04:25:26.143Z,18.40
2019-05-03T04:27:56.143Z,19.01
2019-05-03T04:30:25.736Z,19.44
2019-05-03T04:32:56.485Z,20.10
2019-05-03T04:35:26.648Z,20.29
2019-05-03T04:37:56.097Z,20.74
2019-05-03T04:42:55.535Z,20.82
2019-05-03T04:45:25.650Z,20.87
2019-05-03T04:47:56.153Z,21.68
2019-05-03T04:50:25.719Z,21.37
2019-05-03T04:52:56.776Z,21.43
2019-05-03T04:55:26.632Z,21.38
2019-05-03T04:57:56.083Z,21.89
2019-05-03T05:00:25.830Z,22.19
2019-05-03T05:02:55.287Z,22.41
2019-05-03T05:05:26.090Z,22.29
2019-05-03T05:07:55.706Z,22.80
2019-05-03T05:10:26.183Z,21.82
2019-05-03T05:12:55.370Z,22.55
2019-05-03T05:15:26.359Z,23.33
2019-05-03T05:18:05.709Z,23.15
2019-05-03T05:20:39.096Z,23.44
2019-05-03T05:23:08.020Z,24.02
2019-05-03T05:25:55.049Z,24.44
2019-05-03T05:28:44.740Z,24.95
2019-05-03T05:31:15.162Z,24.63
2019-05-03T05:33:44.649Z,24.84
2019-05-03T05:36:15.143Z,24.19
2019-05-03T05:38:45.051Z,23.47
2019-05-03T05:41:15.645Z,23.68
2019-05-03T05:43:44.657Z,23.44
2019-05-03T05:46:14.625Z,23.86
2019-05-03T05:48:48.015Z,22.84
2019-05-03T05:51:16.585Z,23.64
2019-05-03T05:53:45.192Z,24.44
2019-05-03T05:56:15.824Z,25.06
2019-05-03T05:58:47.310Z,25.37
2019-05-03T06:01:25.046Z,25.30
2019-05-03T06:03:55.088Z,24.92
2019-05-03T06:06:28.392Z,25.47
2019-05-03T06:08:58.704Z,25.54
2019-05-03T06:11:35.291Z,25.81
2019-05-03T06:14:11.695Z,26.57
2019-05-03T06:16:45.170Z,26.00
2019-05-03T06:19:15.457Z,24.07
2019-05-03T06:21:47.727Z,24.45
2019-05-03T06:24:20.761Z,23.49
2019-05-03T06:27:00.134Z,24.49
2019-05-03T06:29:28.808Z,24.49
2019-05-03T06:32:15.435Z,23.18
2019-05-03T06:34:45.558Z,22.12
2019-05-03T06:37:15.902Z,22.23
2019-05-03T06:39:45.406Z,23.71
2019-05-03T06:42:16.052Z,24.24
2019-05-03T06:44:45.562Z,24.00
2019-05-03T06:47:14.821Z,23.63
2019-05-03T06:49:46.947Z,23.85
2019-05-03T06:52:14.701Z,23.85
2019-05-03T06:54:44.890Z,23.54
2019-05-03T06:57:15.368Z,23.97
2019-05-03T06:59:48.245Z,24.96
2019-05-03T07:02:35.517Z,24.96
2019-05-03T07:05:25.417Z,24.56
2019-05-03T07:07:58.616Z,24.56
2019-05-03T07:10:28.891Z,25.06
2019-05-03T07:13:05.515Z,24.92
2019-05-03T07:15:35.288Z,25.53
2019-05-03T07:18:05.818Z,26.09
2019-05-03T07:20:56.498Z,24.33
2019-05-03T07:23:24.624Z,24.86
2019-05-03T07:25:55.030Z,24.86
2019-05-03T07:28:24.821Z,25.44
2019-05-03T07:30:54.440Z,25.12
2019-05-03T07:33:25.429Z,25.94
2019-05-03T07:35:54.752Z,26.40
2019-05-03T07:38:24.811Z,25.70
2019-05-03T07:40:54.965Z,25.92
2019-05-03T07:43:24.555Z,25.21
2019-05-03T07:45:55.078Z,25.56
2019-05-03T07:48:25.447Z,26.10
2019-05-03T07:50:54.660Z,26.20
2019-05-03T07:53:25.193Z,24.75
2019-05-03T07:56:07.553Z,25.00
2019-05-03T07:58:37.864Z,24.32
2019-05-03T08:01:14.913Z,25.56
2019-05-03T08:03:45.091Z,24.95
2019-05-03T08:06:14.955Z,24.12
2019-05-03T08:08:45.437Z,24.26
2019-05-03T08:11:14.605Z,25.04
2019-05-03T08:13:44.683Z,25.12
2019-05-03T08:16:15.907Z,26.03
2019-05-03T08:18:45.725Z,26.34
2019-05-03T08:21:14.887Z,26.83
2019-05-03T08:23:45.337Z,26.72
2019-05-03T08:26:15.330Z,26.39
2019-05-03T08:28:44.531Z,25.79
2019-05-03T08:31:30.214Z,26.01
2019-05-03T08:34:00.500Z,24.99
2019-05-03T08:36:30.845Z,24.92
2019-05-03T08:38:59.494Z,24.28
2019-05-03T08:41:29.801Z,23.67
2019-05-03T08:43:58.530Z,25.49
2019-05-03T08:46:27.166Z,25.49
2019-05-03T08:48:55.726Z,25.30
2019-05-03T08:51:25.048Z,24.72
2019-05-03T08:53:55.922Z,25.05
2019-05-03T08:56:24.704Z,24.50
2019-05-03T08:58:55.413Z,24.99
2019-05-03T09:01:25.158Z,24.98
2019-05-03T09:03:55.786Z,24.68
2019-05-03T09:06:24.783Z,24.33
2019-05-03T09:08:56.916Z,22.95
2019-05-03T09:11:31.885Z,23.86
2019-05-03T09:13:55.952Z,23.89
2019-05-03T09:16:25.293Z,23.38
2019-05-03T09:18:54.972Z,23.23
2019-05-03T09:21:25.540Z,22.95
2019-05-03T09:23:55.352Z,23.32
2019-05-03T09:26:28.970Z,23.74
2019-05-03T09:28:55.787Z,23.60
2019-05-03T09:31:24.856Z,23.12
2019-05-03T09:33:54.836Z,22.68
2019-05-03T09:36:25.361Z,22.27
2019-05-03T09:38:54.949Z,22.28
2019-05-03T09:41:25.687Z,22.53
2019-05-03T09:43:55.641Z,23.03
2019-05-03T09:46:26.563Z,23.34
2019-05-03T09:49:09.485Z,23.72
2019-05-03T09:51:25.527Z,24.25
2019-05-03T09:53:55.900Z,24.34
2019-05-03T09:56:52.876Z,24.54
2019-05-03T09:59:14.665Z,24.58
2019-05-03T10:01:45.437Z,25.07
2019-05-03T10:04:13.421Z,24.82
2019-05-03T10:06:42.092Z,24.73
2019-05-03T10:09:10.728Z,25.07
2019-05-03T10:11:39.465Z,25.21
2019-05-03T10:14:08.093Z,24.62
2019-05-03T10:16:38.371Z,24.75
2019-05-03T10:19:07.067Z,24.82
2019-05-03T10:21:37.260Z,24.77
2019-05-03T10:24:06.770Z,24.62
2019-05-03T10:26:35.676Z,24.36
2019-05-03T10:29:05.423Z,24.56
2019-05-03T10:31:45.074Z,24.04
2019-05-03T10:34:15.543Z,23.77
2019-05-03T10:36:44.241Z,23.86
2019-05-03T10:39:12.902Z,23.77
2019-05-03T10:41:41.524Z,23.78
2019-05-03T10:44:10.089Z,23.70
2019-05-03T10:46:39.118Z,23.27
2019-05-03T10:49:07.714Z,22.98
2019-05-03T10:51:37.992Z,23.36
2019-05-03T10:54:06.790Z,23.38
2019-05-03T10:56:56.020Z,23.46
2019-05-03T10:59:24.977Z,23.77
2019-05-03T11:02:01.432Z,23.28
2019-05-03T11:04:30.897Z,23.05
2019-05-03T11:06:59.540Z,23.09
2019-05-03T11:09:28.121Z,23.28
2019-05-03T11:11:57.911Z,23.54
2019-05-03T11:14:26.467Z,23.71
2019-05-03T11:16:55.427Z,24.07
2019-05-03T11:19:25.430Z,23.76
2019-05-03T11:21:54.725Z,23.39
2019-05-03T11:24:27.297Z,23.14
2019-05-03T11:26:55.908Z,23.11
2019-05-03T11:29:24.866Z,23.48
2019-05-03T11:31:57.517Z,23.48
2019-05-03T11:34:30.512Z,23.65
2019-05-03T11:37:09.896Z,24.07
2019-05-03T11:39:38.558Z,23.70
2019-05-03T11:42:07.172Z,22.79
2019-05-03T11:44:38.378Z,23.49
2019-05-03T11:47:08.484Z,24.10
2019-05-03T11:49:37.126Z,24.42
2019-05-03T11:52:06.933Z,24.56
2019-05-03T11:54:36.105Z,24.57
2019-05-03T11:57:06.554Z,24.60
2019-05-03T11:59:35.145Z,24.47
2019-05-03T12:02:20.892Z,24.23
2019-05-03T12:04:49.645Z,24.33
2019-05-03T12:07:39.647Z,24.29
2019-05-03T12:10:15.189Z,24.49
2019-05-03T12:12:44.562Z,24.57
2019-05-03T12:15:15.103Z,24.79
2019-05-03T12:17:54.221Z,25.00
2019-05-03T12:20:17.925Z,25.12
2019-05-03T12:22:47.322Z,25.04
2019-05-03T12:25:17.231Z,24.98
2019-05-03T12:27:46.235Z,25.34
2019-05-03T12:30:15.537Z,25.27
2019-05-03T12:32:44.092Z,25.16
2019-05-03T12:35:15.180Z,25.38
2019-05-03T12:37:43.413Z,25.69
2019-05-03T12:40:14.870Z,25.69
2019-05-03T12:42:45.248Z,25.50
2019-05-03T12:45:15.281Z,25.50
2019-05-03T12:47:45.341Z,25.23
2019-05-03T12:50:15.702Z,25.08
2019-05-03T12:52:50.259Z,25.28
2019-05-03T12:55:15.364Z,25.64
2019-05-03T12:57:45.763Z,25.81
2019-05-03T13:00:25.875Z,25.45
2019-05-03T13:02:56.052Z,25.18
2019-05-03T13:05:24.955Z,25.21
2019-05-03T13:08:05.568Z,25.37
2019-05-03T13:10:34.627Z,25.58
2019-05-03T13:13:03.334Z,25.73
2019-05-03T13:15:31.935Z,25.55
2019-05-03T13:18:00.565Z,25.78
2019-05-03T13:20:29.212Z,25.90
2019-05-03T13:22:57.679Z,25.81
2019-05-03T13:25:26.241Z,25.99
2019-05-03T13:27:54.927Z,26.16
2019-05-03T13:30:25.112Z,26.40
2019-05-03T13:32:54.920Z,26.39
2019-05-03T13:35:25.657Z,26.21
2019-05-03T13:37:55.649Z,25.84
2019-05-03T13:40:25.009Z,26.04
2019-05-03T13:43:00.044Z,25.81
2019-05-03T13:45:24.685Z,24.92
2019-05-03T13:47:55.288Z,24.92
2019-05-03T13:50:24.595Z,25.01
2019-05-03T13:52:55.939Z,24.89
2019-05-03T13:55:24.671Z,25.17
2019-05-03T13:57:54.820Z,25.17
2019-05-03T14:00:24.701Z,25.10
2019-05-03T14:02:53.517Z,25.19
2019-05-03T14:05:22.188Z,25.11
2019-05-03T14:07:50.742Z,25.06
2019-05-03T14:10:19.488Z,25.45
2019-05-03T14:12:48.150Z,25.61
2019-05-03T14:15:17.038Z,25.44
2019-05-03T14:17:45.606Z,25.63
2019-05-03T14:20:26.203Z,25.13
2019-05-03T14:22:54.953Z,24.81
2019-05-03T14:25:24.689Z,25.07
2019-05-03T14:27:54.980Z,24.55
2019-05-03T14:30:25.277Z,24.55
2019-05-03T14:32:55.732Z,24.75
2019-05-03T14:35:25.070Z,24.64
2019-05-03T14:37:55.064Z,24.52
2019-05-03T14:40:25.146Z,24.74
2019-05-03T14:42:55.431Z,24.82
2019-05-03T14:45:25.592Z,24.78
2019-05-03T14:47:54.777Z,24.69
2019-05-03T14:50:25.458Z,24.66
2019-05-03T14:52:56.862Z,24.62
2019-05-03T14:55:41.477Z,24.45
2019-05-03T14:58:11.741Z,24.34
2019-05-03T15:00:54.577Z,24.25
2019-05-03T15:03:24.993Z,24.17
2019-05-03T15:05:55.129Z,24.18
2019-05-03T15:08:25.634Z,24.24
2019-05-03T15:10:54.732Z,24.22
2019-05-03T15:13:25.115Z,24.16
2019-05-03T15:15:54.728Z,23.81
2019-05-03T15:18:25.429Z,23.64
2019-05-03T15:20:54.974Z,23.68
2019-05-03T15:23:25.458Z,23.70
2019-05-03T15:25:54.612Z,23.63
2019-05-03T15:28:25.094Z,23.01
2019-05-03T15:30:55.329Z,22.57
2019-05-03T15:33:24.089Z,22.27
2019-05-03T15:35:52.647Z,22.08
2019-05-03T15:38:21.239Z,21.95
2019-05-03T15:40:49.967Z,21.80
2019-05-03T15:43:20.167Z,21.90
2019-05-03T15:45:50.479Z,21.79
2019-05-03T15:48:20.751Z,21.65
2019-05-03T15:50:49.311Z,21.67
2019-05-03T15:53:17.836Z,21.76
2019-05-03T15:55:46.470Z,21.69
2019-05-03T15:58:15.413Z,21.57
2019-05-03T16:00:44.597Z,21.54
2019-05-03T16:03:14.546Z,21.46
2019-05-03T16:05:44.698Z,21.39
2019-05-03T16:08:15.285Z,21.32
2019-05-03T16:10:45.552Z,21.17
2019-05-03T16:13:14.387Z,21.08
2019-05-03T16:15:44.547Z,20.99
2019-05-03T16:18:14.817Z,21.05
2019-05-03T16:20:45.107Z,20.91
2019-05-03T16:23:15.479Z,20.86
2019-05-03T16:25:44.887Z,20.76
2019-05-03T16:28:15.325Z,20.82
2019-05-03T16:30:45.624Z,20.82
2019-05-03T16:33:26.110Z,20.80
2019-05-03T16:35:44.625Z,20.72
2019-05-03T16:38:13.256Z,20.68
2019-05-03T16:40:41.907Z,20.66
2019-05-03T16:43:10.574Z,20.57
2019-05-03T16:45:39.118Z,20.48
2019-05-03T16:48:07.690Z,20.45
2019-05-03T16:50:36.357Z,20.33
2019-05-03T16:53:05.552Z,20.25
2019-05-03T16:55:35.139Z,20.28
2019-05-03T16:58:03.862Z,20.20
2019-05-03T17:00:32.495Z,20.10
2019-05-03T17:03:00.978Z,20.02
2019-05-03T17:05:47.662Z,20.13
2019-05-03T17:08:34.660Z,20.05
2019-05-03T17:11:07.669Z,20.02
2019-05-03T17:13:36.230Z,19.97
2019-05-03T17:16:06.864Z,19.96
2019-05-03T17:18:35.678Z,19.86
2019-05-03T17:21:05.514Z,19.77
2019-05-03T17:23:35.329Z,19.79
2019-05-03T17:26:04.204Z,19.69
2019-05-03T17:28:32.821Z,19.66
2019-05-03T17:31:01.385Z,19.56
2019-05-03T17:33:30.048Z,19.48
2019-05-03T17:35:59.288Z,19.36
2019-05-03T17:38:27.926Z,19.22
2019-05-03T17:41:00.949Z,19.13
2019-05-03T17:43:31.218Z,19.05
2019-05-03T17:46:01.347Z,19.02
2019-05-03T17:48:29.873Z,18.91
2019-05-03T17:50:58.629Z,18.79
2019-05-03T17:53:38.135Z,18.72
2019-05-03T17:56:25.104Z,18.57
2019-05-03T17:58:58.100Z,18.45
2019-05-03T18:01:44.614Z,18.29
2019-05-03T18:04:24.824Z,18.23
2019-05-03T18:07:11.367Z,18.13
2019-05-03T18:09:41.570Z,18.04
2019-05-03T18:12:10.132Z,17.91
2019-05-03T18:14:38.905Z,17.85
2019-05-03T18:17:07.512Z,17.88
2019-05-03T18:19:36.073Z,17.76
2019-05-03T18:22:05.340Z,17.67
2019-05-03T18:24:35.218Z,17.63
2019-05-03T18:27:04.022Z,17.56
2019-05-03T18:29:34.424Z,17.50
2019-05-03T18:32:02.935Z,17.50
2019-05-03T18:34:31.565Z,17.51
2019-05-03T18:37:00.094Z,17.48
2019-05-03T18:39:28.806Z,17.46
2019-05-03T18:41:57.500Z,17.44
2019-05-03T18:44:27.809Z,17.42
2019-05-03T18:46:58.008Z,17.36
2019-05-03T18:49:26.563Z,17.37
2019-05-03T18:51:55.490Z,17.37
2019-05-03T18:54:24.614Z,17.40
2019-05-03T18:56:53.206Z,17.37
2019-05-03T18:59:21.919Z,17.32
2019-05-03T19:01:50.612Z,17.35
2019-05-03T19:04:32.343Z,17.29
2019-05-03T19:07:03.750Z,17.30
2019-05-03T19:09:43.396Z,17.31
2019-05-03T19:12:15.437Z,17.31
2019-05-03T19:14:44.852Z,17.24
2019-05-03T19:17:31.511Z,17.18
2019-05-03T19:20:01.006Z,17.12
2019-05-03T19:22:29.726Z,17.04
2019-05-03T19:24:58.277Z,16.94
2019-05-03T19:27:26.904Z,16.80
2019-05-03T19:29:55.627Z,16.82
2019-05-03T19:32:25.497Z,16.83
2019-05-03T19:34:55.038Z,16.85
2019-05-03T19:37:25.130Z,16.77
2019-05-03T19:39:55.274Z,16.65
2019-05-03T19:42:24.807Z,16.63
2019-05-03T19:44:55.277Z,16.61
2019-05-03T19:47:25.230Z,16.63
2019-05-03T19:49:54.697Z,16.57
2019-05-03T19:52:28.220Z,16.55
2019-05-03T19:54:56.879Z,16.61
2019-05-03T19:57:27.545Z,16.60
2019-05-03T19:59:56.935Z,16.63
2019-05-03T20:02:30.427Z,16.69
2019-05-03T20:05:10.019Z,16.78
2019-05-03T20:07:57.114Z,16.87
2019-05-03T20:10:25.826Z,16.91
2019-05-03T20:12:54.461Z,16.93
2019-05-03T20:15:23.356Z,16.88
2019-05-03T20:17:57.512Z,16.86
2019-05-03T20:20:22.073Z,16.84
2019-05-03T20:22:50.741Z,16.76
2019-05-03T20:25:19.289Z,16.55
2019-05-03T20:27:47.958Z,16.38
2019-05-03T20:30:17.187Z,16.29
2019-05-03T20:32:45.742Z,16.20
2019-05-03T20:35:18.883Z,16.12
2019-05-03T20:37:44.987Z,16.05
2019-05-03T20:40:15.288Z,15.99
2019-05-03T20:43:00.441Z,16.03
2019-05-03T20:45:36.634Z,15.99
2019-05-03T20:48:10.016Z,15.99
2019-05-03T20:50:38.647Z,15.97
2019-05-03T20:53:07.205Z,15.98
2019-05-03T20:55:35.745Z,15.88
2019-05-03T20:58:07.898Z,15.81
2019-05-03T21:00:34.812Z,15.79
2019-05-03T21:03:04.933Z,15.72
2019-05-03T21:05:36.835Z,15.57
2019-05-03T21:08:05.609Z,15.51
2019-05-03T21:10:34.401Z,15.51
2019-05-03T21:13:02.890Z,15.47
2019-05-03T21:15:36.079Z,15.42
2019-05-03T21:18:06.485Z,15.44
2019-05-03T21:20:39.495Z,15.40
2019-05-03T21:23:14.656Z,15.45
2019-05-03T21:26:03.517Z,15.44
2019-05-03T21:28:16.162Z,15.43
2019-05-03T21:30:45.474Z,15.44
2019-05-03T21:33:15.754Z,15.38
2019-05-03T21:35:45.201Z,15.37
2019-05-03T21:38:14.004Z,15.25
2019-05-03T21:40:42.772Z,15.11
2019-05-03T21:43:11.300Z,15.00
2019-05-03T21:45:41.607Z,14.91
2019-05-03T21:48:11.732Z,14.82
2019-05-03T21:50:40.225Z,14.64
2019-05-03T21:53:08.894Z,14.57
2019-05-03T21:55:37.519Z,14.56
2019-05-03T21:58:06.011Z,14.47
2019-05-03T22:00:45.492Z,14.43
2019-05-03T22:03:14.616Z,14.36
2019-05-03T22:05:54.830Z,14.32
2019-05-03T22:08:13.911Z,14.25
2019-05-03T22:10:42.396Z,14.24
2019-05-03T22:13:11.087Z,14.17
2019-05-03T22:15:50.303Z,14.05
2019-05-03T22:18:24.732Z,13.91
2019-05-03T22:21:10.318Z,13.81
2019-05-03T22:23:57.072Z,13.69
2019-05-03T22:26:44.827Z,13.68
2019-05-03T22:29:14.436Z,13.60
2019-05-03T22:31:45.295Z,13.57
2019-05-03T22:34:15.055Z,13.52
2019-05-03T22:36:44.418Z,13.57
2019-05-03T22:39:13.197Z,13.53
2019-05-03T22:41:41.793Z,13.52
2019-05-03T22:44:10.428Z,13.52
2019-05-03T22:46:38.971Z,13.50
2019-05-03T22:49:07.565Z,13.47
2019-05-03T22:51:36.060Z,13.53
2019-05-03T22:54:04.857Z,13.47
2019-05-03T22:56:35.439Z,13.40
2019-05-03T22:59:05.510Z,13.39
2019-05-03T23:01:35.219Z,13.35
2019-05-03T23:04:05.568Z,13.35
2019-05-03T23:06:34.261Z,13.39
2019-05-03T23:09:04.934Z,13.27
2019-05-03T23:11:35.194Z,13.03
2019-05-03T23:14:04.981Z,13.22
2019-05-03T23:16:35.699Z,13.19
2019-05-03T23:19:05.503Z,13.21
2019-05-03T23:21:42.055Z,13.22
2019-05-03T23:24:10.722Z,13.28
2019-05-03T23:26:39.182Z,13.26
2019-05-03T23:29:07.683Z,13.29
2019-05-03T23:31:36.200Z,13.36
2019-05-03T23:34:05.059Z,13.38
2019-05-03T23:36:36.204Z,13.39
2019-05-03T23:39:05.302Z,13.47
2019-05-03T23:41:35.121Z,13.57
2019-05-03T23:44:04.767Z,13.56
2019-05-03T23:46:35.103Z,13.59
2019-05-03T23:49:03.605Z,13.61
2019-05-03T23:51:45.798Z,13.58
2019-05-03T23:54:14.966Z,13.56
2019-05-03T23:56:45.870Z,13.39
2019-05-03T23:59:14.936Z,13.31
